createdAt,value
2017-04-22T00:00:21.140Z,84.45
2017-04-22T00:01:22.562Z,84.64
2017-04-22T00:02:23.988Z,84.45
2017-04-22T00:03:25.416Z,84.74
2017-04-22T00:04:26.834Z,84.83
2017-04-22T00:05:28.269Z,84.92
2017-04-22T00:06:29.698Z,84.55
2017-04-22T00:07:31.158Z,85.41
2017-04-22T00:08:32.570Z,84.16
2017-04-22T00:09:33.999Z,84.74
2017-04-22T00:10:35.426Z,84.92
2017-04-22T00:11:36.855Z,85.02
2017-04-22T00:12:38.285Z,84.83
2017-04-22T00:13:39.718Z,84.64
2017-04-22T00:14:41.143Z,84.83
2017-04-22T00:15:42.571Z,84.83
2017-04-22T00:16:44.001Z,84.92
2017-04-22T00:17:45.427Z,85.02
2017-04-22T00:18:46.854Z,85.02
2017-04-22T00:19:48.283Z,84.55
2017-04-22T00:20:49.712Z,84.83
2017-04-22T00:21:51.137Z,85.41
2017-04-22T00:22:52.557Z,85.50
2017-04-22T00:23:53.984Z,84.83
2017-04-22T00:24:55.414Z,84.07
2017-04-22T00:25:56.832Z,84.64
2017-04-22T00:26:58.260Z,85.02
2017-04-22T00:27:59.690Z,85.02
2017-04-22T00:29:01.113Z,85.21
2017-04-22T00:30:02.544Z,84.83
2017-04-22T00:31:03.963Z,85.41
2017-04-22T00:32:05.398Z,84.92
2017-04-22T00:33:06.821Z,86.07
2017-04-22T00:34:08.246Z,86.74
2017-04-22T00:35:09.667Z,85.31
2017-04-22T00:36:11.098Z,85.50
2017-04-22T00:37:12.523Z,84.45
2017-04-22T00:38:13.951Z,85.41
2017-04-22T00:39:15.379Z,86.07
2017-04-22T00:40:16.800Z,86.16
2017-04-22T00:41:18.226Z,87.60
2017-04-22T00:42:19.613Z,86.83
2017-04-22T00:43:21.034Z,87.50
2017-04-22T00:44:22.457Z,87.50
2017-04-22T00:45:23.956Z,87.40
2017-04-22T00:46:25.380Z,87.40
2017-04-22T00:47:26.817Z,87.31
2017-04-22T00:48:28.239Z,87.69
2017-04-22T00:49:29.743Z,87.40
2017-04-22T00:50:31.174Z,86.74
2017-04-22T00:51:32.600Z,86.55
2017-04-22T00:52:34.032Z,87.02
2017-04-22T00:53:35.463Z,86.74
2017-04-22T00:54:36.900Z,86.36
2017-04-22T00:55:38.952Z,86.74
2017-04-22T00:56:40.415Z,86.55
2017-04-22T00:57:41.855Z,86.36
2017-04-22T00:58:43.272Z,86.55
2017-04-22T00:59:44.698Z,86.98
2017-04-22T01:00:46.123Z,87.02
2017-04-22T01:01:47.547Z,87.31
2017-04-22T01:02:48.975Z,87.50
2017-04-22T01:03:50.403Z,87.27
2017-04-22T01:04:51.825Z,87.98
2017-04-22T01:05:53.951Z,88.26
2017-04-22T01:06:54.625Z,87.40
2017-04-22T01:07:56.052Z,87.50
2017-04-22T01:08:57.599Z,87.02
2017-04-22T01:09:59.024Z,87.40
2017-04-22T01:11:00.445Z,87.88
2017-04-22T01:12:01.872Z,88.55
2017-04-22T01:13:03.297Z,88.74
2017-04-22T01:14:04.723Z,88.26
2017-04-22T01:15:06.149Z,87.98
2017-04-22T01:16:08.183Z,87.69
2017-04-22T01:17:09.615Z,88.55
2017-04-22T01:18:11.038Z,88.60
2017-04-22T01:19:12.466Z,89.07
2017-04-22T01:20:13.893Z,89.55
2017-04-22T01:21:15.325Z,89.46
2017-04-22T01:22:16.747Z,89.22
2017-04-22T01:23:18.171Z,89.22
2017-04-22T01:24:19.600Z,89.31
2017-04-22T01:25:21.022Z,90.26
2017-04-22T01:26:22.447Z,90.45
2017-04-22T01:27:23.872Z,89.60
2017-04-22T01:28:25.293Z,89.79
2017-04-22T01:29:26.728Z,90.60
2017-04-22T01:30:28.163Z,90.60
2017-04-22T01:31:29.592Z,90.55
2017-04-22T01:32:31.019Z,90.89
2017-04-22T01:33:32.444Z,90.60
2017-04-22T01:34:33.824Z,90.79
2017-04-22T01:35:35.252Z,90.41
2017-04-22T01:36:36.680Z,90.89
2017-04-22T01:37:38.105Z,90.45
2017-04-22T01:38:39.534Z,90.70
2017-04-22T01:39:40.959Z,91.27
2017-04-22T01:40:42.383Z,91.17
2017-04-22T01:41:43.803Z,90.70
2017-04-22T01:42:45.225Z,91.08
2017-04-22T01:43:46.654Z,90.55
2017-04-22T01:44:48.077Z,91.08
2017-04-22T01:45:49.503Z,90.89
2017-04-22T01:46:50.936Z,90.93
2017-04-22T01:47:52.358Z,91.94
2017-04-22T01:48:53.789Z,91.55
2017-04-22T01:49:55.217Z,91.17
2017-04-22T01:50:56.641Z,91.46
2017-04-22T01:51:58.072Z,91.36
2017-04-22T01:52:59.527Z,91.84
2017-04-22T01:54:00.934Z,91.65
2017-04-22T01:55:02.360Z,91.94
2017-04-22T01:56:03.792Z,92.50
2017-04-22T01:57:05.232Z,92.60
2017-04-22T01:58:06.665Z,91.65
2017-04-22T01:59:08.091Z,91.94
2017-04-22T02:00:09.514Z,92.60
2017-04-22T02:01:10.946Z,93.27
2017-04-22T02:02:12.327Z,93.46
2017-04-22T02:03:13.805Z,93.08
2017-04-22T02:04:15.236Z,93.37
2017-04-22T02:05:16.654Z,93.08
2017-04-22T02:06:18.069Z,93.17
2017-04-22T02:07:19.501Z,93.55
2017-04-22T02:08:20.927Z,93.08
2017-04-22T02:09:22.354Z,94.13
2017-04-22T02:10:23.783Z,94.32
2017-04-22T02:11:25.206Z,94.32
2017-04-22T02:12:26.629Z,94.03
2017-04-22T02:13:28.065Z,93.41
2017-04-22T02:14:29.497Z,93.27
2017-04-22T02:15:30.929Z,94.03
2017-04-22T02:16:32.444Z,94.22
2017-04-22T02:17:33.866Z,94.22
2017-04-22T02:18:35.294Z,93.55
2017-04-22T02:19:36.719Z,94.32
2017-04-22T02:20:38.233Z,94.79
2017-04-22T02:21:39.657Z,94.32
2017-04-22T02:22:41.083Z,94.13
2017-04-22T02:23:42.513Z,94.89
2017-04-22T02:24:43.945Z,94.60
2017-04-22T02:25:45.367Z,95.27
2017-04-22T02:26:46.796Z,94.98
2017-04-22T02:27:48.296Z,95.36
2017-04-22T02:28:49.728Z,94.98
2017-04-22T02:29:52.656Z,92.74
2017-04-22T02:30:54.082Z,92.36
2017-04-22T02:31:55.517Z,93.22
2017-04-22T02:32:56.938Z,92.89
2017-04-22T02:33:58.362Z,91.37
2017-04-22T02:34:59.789Z,91.37
2017-04-22T02:36:01.214Z,91.46
2017-04-22T02:37:02.632Z,91.56
2017-04-22T02:38:04.020Z,91.70
2017-04-22T02:39:05.442Z,91.46
2017-04-22T02:40:06.858Z,91.61
2017-04-22T02:41:08.291Z,90.94
2017-04-22T02:42:09.711Z,92.46
2017-04-22T02:43:11.133Z,92.27
2017-04-22T02:44:12.554Z,92.84
2017-04-22T02:45:13.981Z,92.27
2017-04-22T02:46:15.414Z,92.61
2017-04-22T02:47:16.834Z,92.46
2017-04-22T02:48:18.211Z,92.56
2017-04-22T02:49:19.684Z,92.36
2017-04-22T02:50:21.110Z,93.41
2017-04-22T02:51:22.543Z,93.23
2017-04-22T02:52:24.009Z,92.46
2017-04-22T02:53:25.436Z,92.61
2017-04-22T02:54:26.860Z,92.27
2017-04-22T02:55:28.348Z,92.56
2017-04-22T02:56:29.766Z,92.18
2017-04-22T02:57:31.200Z,92.51
2017-04-22T02:58:32.582Z,92.89
2017-04-22T02:59:34.003Z,93.55
2017-04-22T03:00:35.463Z,93.37
2017-04-22T03:01:36.897Z,92.89
2017-04-22T03:02:38.466Z,91.33
2017-04-22T03:03:39.886Z,92.41
2017-04-22T03:04:41.310Z,92.56
2017-04-22T03:05:42.732Z,92.56
2017-04-22T03:06:44.224Z,91.80
2017-04-22T03:07:45.647Z,93.23
2017-04-22T03:08:47.067Z,92.37
2017-04-22T03:09:48.488Z,92.94
2017-04-22T03:10:49.918Z,93.32
2017-04-22T03:11:51.340Z,92.85
2017-04-22T03:12:52.766Z,92.66
2017-04-22T03:13:54.189Z,92.46
2017-04-22T03:14:55.609Z,91.52
2017-04-22T03:15:57.035Z,91.23
2017-04-22T03:16:58.463Z,91.52
2017-04-22T03:17:59.886Z,91.52
2017-04-22T03:19:01.306Z,91.42
2017-04-22T03:20:02.675Z,90.47
2017-04-22T03:21:04.112Z,90.28
2017-04-22T03:22:05.533Z,91.61
2017-04-22T03:23:06.956Z,91.33
2017-04-22T03:24:08.382Z,90.85
2017-04-22T03:25:09.798Z,89.80
2017-04-22T03:26:11.222Z,89.61
2017-04-22T03:27:12.643Z,91.61
2017-04-22T03:28:14.073Z,91.33
2017-04-22T03:29:15.501Z,89.23
2017-04-22T03:30:16.919Z,89.42
2017-04-22T03:31:18.339Z,88.76
2017-04-22T03:32:20.622Z,89.80
2017-04-22T03:33:22.054Z,90.19
2017-04-22T03:34:23.492Z,90.47
2017-04-22T03:35:24.911Z,90.66
2017-04-22T03:36:26.336Z,90.56
2017-04-22T03:37:27.762Z,90.47
2017-04-22T03:38:29.181Z,90.56
2017-04-22T03:39:30.599Z,90.66
2017-04-22T03:40:32.023Z,91.33
2017-04-22T03:41:33.446Z,92.18
2017-04-22T03:42:34.867Z,92.66
2017-04-22T03:43:36.282Z,90.47
2017-04-22T03:44:37.718Z,91.52
2017-04-22T03:45:39.148Z,90.28
2017-04-22T03:46:40.563Z,90.47
2017-04-22T03:47:41.989Z,91.09
2017-04-22T03:48:43.415Z,90.90
2017-04-22T03:49:44.841Z,91.89
2017-04-22T03:50:46.319Z,90.75
2017-04-22T03:51:47.738Z,91.61
2017-04-22T03:52:49.169Z,91.61
2017-04-22T03:53:50.590Z,91.71
2017-04-22T03:54:52.025Z,90.56
2017-04-22T03:55:53.453Z,91.33
2017-04-22T03:56:54.882Z,91.52
2017-04-22T03:57:56.369Z,91.71
2017-04-22T03:58:57.800Z,90.94
2017-04-22T03:59:59.240Z,91.38
2017-04-22T04:01:00.657Z,91.28
2017-04-22T04:02:02.216Z,91.23
2017-04-22T04:03:03.644Z,90.85
2017-04-22T04:04:05.064Z,90.56
2017-04-22T04:05:06.493Z,91.80
2017-04-22T04:06:07.912Z,92.37
2017-04-22T04:07:09.332Z,91.61
2017-04-22T04:08:10.753Z,90.94
2017-04-22T04:09:12.179Z,90.66
2017-04-22T04:10:13.710Z,90.56
2017-04-22T04:11:15.131Z,91.33
2017-04-22T04:12:16.547Z,91.13
2017-04-22T04:13:18.073Z,92.56
2017-04-22T04:14:19.500Z,91.33
2017-04-22T04:15:20.925Z,91.99
2017-04-22T04:16:22.353Z,91.33
2017-04-22T04:17:23.780Z,92.27
2017-04-22T04:18:25.201Z,92.75
2017-04-22T04:19:26.625Z,91.89
2017-04-22T04:20:28.054Z,92.94
2017-04-22T04:21:29.479Z,92.56
2017-04-22T04:22:30.901Z,93.13
2017-04-22T04:23:32.327Z,92.94
2017-04-22T04:24:33.745Z,92.27
2017-04-22T04:25:35.175Z,91.99
2017-04-22T04:26:36.602Z,92.37
2017-04-22T04:27:38.030Z,93.23
2017-04-22T04:28:39.452Z,93.51
2017-04-22T04:29:40.884Z,93.13
2017-04-22T04:30:42.315Z,93.04
2017-04-22T04:31:43.741Z,92.56
2017-04-22T04:32:45.165Z,91.56
2017-04-22T04:33:46.587Z,91.04
2017-04-22T04:34:48.008Z,92.75
2017-04-22T04:35:49.434Z,92.85
2017-04-22T04:36:50.852Z,91.52
2017-04-22T04:37:52.280Z,90.61
2017-04-22T04:38:53.697Z,90.23
2017-04-22T04:39:55.130Z,91.61
2017-04-22T04:40:56.553Z,92.37
2017-04-22T04:41:57.968Z,92.32
2017-04-22T04:42:59.400Z,91.42
2017-04-22T04:44:00.820Z,91.42
2017-04-22T04:45:02.241Z,91.99
2017-04-22T04:46:03.660Z,92.27
2017-04-22T04:47:05.080Z,92.66
2017-04-22T04:48:06.514Z,93.32
2017-04-22T04:49:07.940Z,92.56
2017-04-22T04:50:09.360Z,92.56
2017-04-22T04:51:10.785Z,93.04
2017-04-22T04:52:12.208Z,93.94
2017-04-22T04:53:13.636Z,91.85
2017-04-22T04:54:15.066Z,90.94
2017-04-22T04:55:17.028Z,92.37
2017-04-22T04:56:18.451Z,92.41
2017-04-22T04:57:19.885Z,91.56
2017-04-22T04:58:21.306Z,91.99
2017-04-22T04:59:22.759Z,92.51
2017-04-22T05:00:24.156Z,93.04
2017-04-22T05:01:25.583Z,92.37
2017-04-22T05:02:27.012Z,92.41
2017-04-22T05:03:28.440Z,92.03
2017-04-22T05:04:29.866Z,92.70
2017-04-22T05:05:31.288Z,92.41
2017-04-22T05:06:32.718Z,91.28
2017-04-22T05:07:34.142Z,90.33
2017-04-22T05:08:35.564Z,90.94
2017-04-22T05:09:36.989Z,91.28
2017-04-22T05:10:38.415Z,91.33
2017-04-22T05:11:39.843Z,92.51
2017-04-22T05:12:41.271Z,92.51
2017-04-22T05:13:42.703Z,93.23
2017-04-22T05:14:44.783Z,92.85
2017-04-22T05:15:46.216Z,92.75
2017-04-22T05:16:47.638Z,92.94
2017-04-22T05:17:49.068Z,92.85
2017-04-22T05:18:50.492Z,92.61
2017-04-22T05:19:51.922Z,90.89
2017-04-22T05:20:53.360Z,90.66
2017-04-22T05:21:54.736Z,91.66
2017-04-22T05:22:56.185Z,92.46
2017-04-22T05:23:57.738Z,92.70
2017-04-22T05:24:59.169Z,91.94
2017-04-22T05:26:00.603Z,91.37
2017-04-22T05:27:02.034Z,89.37
2017-04-22T05:28:03.460Z,90.14
2017-04-22T05:29:04.881Z,90.14
2017-04-22T05:30:06.316Z,90.14
2017-04-22T05:31:07.742Z,90.89
2017-04-22T05:32:09.169Z,90.99
2017-04-22T05:33:10.591Z,91.37
2017-04-22T05:34:12.016Z,91.66
2017-04-22T05:35:14.016Z,92.41
2017-04-22T05:36:15.445Z,91.37
2017-04-22T05:37:16.874Z,92.22
2017-04-22T05:38:18.316Z,90.99
2017-04-22T05:39:19.741Z,91.18
2017-04-22T05:40:21.176Z,93.41
2017-04-22T05:41:22.604Z,92.03
2017-04-22T05:42:24.037Z,92.70
2017-04-22T05:43:25.460Z,91.37
2017-04-22T05:44:26.892Z,90.42
2017-04-22T05:45:28.318Z,90.89
2017-04-22T05:46:29.754Z,90.80
2017-04-22T05:47:31.181Z,91.08
2017-04-22T05:48:32.608Z,90.80
2017-04-22T05:49:34.030Z,90.04
2017-04-22T05:50:35.455Z,90.37
2017-04-22T05:51:36.883Z,90.08
2017-04-22T05:52:38.315Z,89.75
2017-04-22T05:53:39.744Z,90.37
2017-04-22T05:54:41.178Z,90.28
2017-04-22T05:55:42.613Z,89.51
2017-04-22T05:56:44.778Z,88.94
2017-04-22T05:57:46.212Z,89.23
2017-04-22T05:58:47.660Z,88.56
2017-04-22T05:59:49.058Z,88.09
2017-04-22T06:00:50.485Z,87.80
2017-04-22T06:01:51.913Z,88.37
2017-04-22T06:02:53.337Z,88.37
2017-04-22T06:03:54.769Z,88.75
2017-04-22T06:04:56.193Z,89.70
2017-04-22T06:05:57.619Z,89.51
2017-04-22T06:06:59.054Z,87.99
2017-04-22T06:08:00.486Z,88.56
2017-04-22T06:09:01.915Z,89.56
2017-04-22T06:10:03.341Z,89.89
2017-04-22T06:11:04.768Z,89.28
2017-04-22T06:12:06.200Z,89.51
2017-04-22T06:13:07.637Z,87.90
2017-04-22T06:14:09.067Z,87.52
2017-04-22T06:15:10.494Z,87.52
2017-04-22T06:16:11.920Z,89.51
2017-04-22T06:17:13.344Z,88.75
2017-04-22T06:18:14.785Z,88.56
2017-04-22T06:19:16.213Z,89.32
2017-04-22T06:20:17.650Z,88.85
2017-04-22T06:21:19.089Z,88.75
2017-04-22T06:22:20.512Z,87.99
2017-04-22T06:23:21.942Z,87.71
2017-04-22T06:24:23.375Z,88.28
2017-04-22T06:25:24.821Z,87.52
2017-04-22T06:26:26.257Z,87.23
2017-04-22T06:27:27.685Z,88.46
2017-04-22T06:28:29.119Z,87.61
2017-04-22T06:29:30.549Z,87.23
2017-04-22T06:30:31.982Z,85.90
2017-04-22T06:31:33.409Z,84.37
2017-04-22T06:32:34.849Z,85.52
2017-04-22T06:33:36.277Z,86.28
2017-04-22T06:34:37.710Z,85.28
2017-04-22T06:35:39.138Z,84.61
2017-04-22T06:36:40.569Z,84.61
2017-04-22T06:37:42.706Z,85.56
2017-04-22T06:38:44.138Z,84.85
2017-04-22T06:39:45.518Z,87.13
2017-04-22T06:40:46.944Z,85.14
2017-04-22T06:41:48.417Z,85.71
2017-04-22T06:42:49.852Z,86.57
2017-04-22T06:43:51.278Z,86.66
2017-04-22T06:44:52.709Z,86.38
2017-04-22T06:45:54.140Z,86.94
2017-04-22T06:46:55.706Z,85.61
2017-04-22T06:47:57.138Z,86.85
2017-04-22T06:48:58.560Z,87.52
2017-04-22T06:49:59.992Z,86.85
2017-04-22T06:51:01.420Z,87.04
2017-04-22T06:52:02.847Z,86.66
2017-04-22T06:53:04.279Z,86.47
2017-04-22T06:54:05.670Z,86.22
2017-04-22T06:55:07.101Z,85.94
2017-04-22T06:56:08.529Z,86.13
2017-04-22T06:57:09.956Z,86.61
2017-04-22T06:58:11.386Z,85.33
2017-04-22T06:59:12.816Z,86.94
2017-04-22T07:00:14.202Z,86.47
2017-04-22T07:01:15.635Z,85.52
2017-04-22T07:02:17.069Z,86.57
2017-04-22T07:03:18.496Z,86.57
2017-04-22T07:04:19.921Z,85.33
2017-04-22T07:05:21.349Z,84.85
2017-04-22T07:06:22.774Z,85.42
2017-04-22T07:07:24.206Z,85.90
2017-04-22T07:08:25.634Z,85.71
2017-04-22T07:09:27.062Z,85.33
2017-04-22T07:10:28.489Z,85.24
2017-04-22T07:11:29.922Z,83.71
2017-04-22T07:12:31.352Z,84.66
2017-04-22T07:13:32.781Z,84.76
2017-04-22T07:14:34.205Z,83.81
2017-04-22T07:15:35.630Z,83.14
2017-04-22T07:16:37.057Z,81.62
2017-04-22T07:17:38.485Z,80.00
2017-04-22T07:18:39.914Z,82.19
2017-04-22T07:19:41.349Z,81.05
2017-04-22T07:20:42.772Z,82.48
2017-04-22T07:21:44.204Z,82.67
2017-04-22T07:22:45.628Z,84.28
2017-04-22T07:23:47.054Z,84.09
2017-04-22T07:24:48.484Z,81.14
2017-04-22T07:25:49.911Z,81.14
2017-04-22T07:26:51.342Z,81.71
2017-04-22T07:27:52.769Z,80.00
2017-04-22T07:28:54.204Z,81.71
2017-04-22T07:29:55.628Z,81.24
2017-04-22T07:30:57.060Z,80.82
2017-04-22T07:31:58.489Z,79.20
2017-04-22T07:32:59.928Z,81.38
2017-04-22T07:34:01.364Z,80.44
2017-04-22T07:35:02.788Z,81.38
2017-04-22T07:36:04.216Z,80.34
2017-04-22T07:37:05.641Z,80.66
2017-04-22T07:38:07.073Z,79.43
2017-04-22T07:39:08.494Z,77.77
2017-04-22T07:40:10.476Z,77.49
2017-04-22T07:41:11.902Z,78.10
2017-04-22T07:42:13.324Z,77.77
2017-04-22T07:43:14.765Z,78.34
2017-04-22T07:44:16.195Z,79.58
2017-04-22T07:45:17.626Z,78.19
2017-04-22T07:46:19.053Z,77.05
2017-04-22T07:47:20.479Z,77.81
2017-04-22T07:48:21.916Z,76.71
2017-04-22T07:49:23.339Z,77.28
2017-04-22T07:50:24.765Z,77.56
2017-04-22T07:51:26.193Z,76.27
2017-04-22T07:52:27.616Z,72.81
2017-04-22T07:53:29.046Z,74.39
2017-04-22T07:54:30.474Z,75.62
2017-04-22T07:55:31.904Z,76.10
2017-04-22T07:56:33.328Z,74.96
2017-04-22T07:57:34.756Z,74.67
2017-04-22T07:58:36.179Z,75.91
2017-04-22T07:59:37.605Z,76.20
2017-04-22T08:00:39.034Z,76.39
2017-04-22T08:01:40.466Z,74.35
2017-04-22T08:02:41.896Z,72.64
2017-04-22T08:03:43.325Z,73.82
2017-04-22T08:04:44.763Z,73.69
2017-04-22T08:05:46.190Z,76.25
2017-04-22T08:06:47.630Z,75.87
2017-04-22T08:07:49.055Z,73.15
2017-04-22T08:08:50.480Z,74.73
2017-04-22T08:09:52.559Z,74.63
2017-04-22T08:10:53.992Z,75.68
2017-04-22T08:11:55.420Z,75.30
2017-04-22T08:12:56.852Z,74.39
2017-04-22T08:13:58.282Z,74.29
2017-04-22T08:14:59.715Z,74.48
2017-04-22T08:16:01.095Z,76.01
2017-04-22T08:17:02.529Z,74.10
2017-04-22T08:18:04.555Z,72.20
2017-04-22T08:19:05.982Z,72.01
2017-04-22T08:20:07.412Z,71.72
2017-04-22T08:21:08.845Z,70.87
2017-04-22T08:22:10.274Z,68.87
2017-04-22T08:23:11.704Z,70.90
2017-04-22T08:24:13.128Z,69.73
2017-04-22T08:25:14.557Z,70.87
2017-04-22T08:26:15.983Z,71.53
2017-04-22T08:27:17.410Z,72.96
2017-04-22T08:28:18.843Z,72.77
2017-04-22T08:29:20.266Z,73.34
2017-04-22T08:30:21.697Z,70.20
2017-04-22T08:31:23.124Z,69.25
2017-04-22T08:32:24.557Z,70.30
2017-04-22T08:33:25.979Z,70.10
2017-04-22T08:34:27.406Z,69.54
2017-04-22T08:35:28.830Z,69.82
2017-04-22T08:36:30.253Z,70.30
2017-04-22T08:37:31.695Z,71.63
2017-04-22T08:38:33.125Z,71.53
2017-04-22T08:39:34.553Z,69.92
2017-04-22T08:40:35.983Z,69.44
2017-04-22T08:41:37.405Z,68.77
2017-04-22T08:42:38.835Z,69.19
2017-04-22T08:43:40.264Z,67.86
2017-04-22T08:44:41.696Z,69.00
2017-04-22T08:45:43.128Z,68.71
2017-04-22T08:46:52.011Z,69.19
2017-04-22T08:47:46.051Z,68.24
2017-04-22T08:48:47.480Z,68.24
2017-04-22T08:49:48.908Z,65.29
2017-04-22T08:50:56.021Z,66.24
2017-04-22T08:51:51.725Z,67.76
2017-04-22T08:52:53.149Z,67.00
2017-04-22T08:53:56.189Z,67.00
2017-04-22T08:54:57.613Z,66.53
2017-04-22T08:55:59.038Z,67.10
2017-04-22T08:57:00.465Z,67.80
2017-04-22T08:58:01.897Z,67.80
2017-04-22T08:59:03.330Z,67.35
2017-04-22T09:00:04.757Z,64.87
2017-04-22T09:01:06.182Z,63.64
2017-04-22T09:02:07.610Z,64.02
2017-04-22T09:03:09.044Z,65.13
2017-04-22T09:04:10.475Z,64.84
2017-04-22T09:05:11.903Z,64.65
2017-04-22T09:06:13.346Z,62.27
2017-04-22T09:07:14.781Z,64.18
2017-04-22T09:08:16.209Z,62.56
2017-04-22T09:09:17.640Z,62.68
2017-04-22T09:10:19.072Z,63.60
2017-04-22T09:11:20.504Z,62.75
2017-04-22T09:12:21.938Z,62.46
2017-04-22T09:13:23.370Z,62.56
2017-04-22T09:14:24.802Z,61.04
2017-04-22T09:15:26.232Z,62.65
2017-04-22T09:16:27.658Z,63.51
2017-04-22T09:17:29.101Z,63.42
2017-04-22T09:18:30.534Z,61.80
2017-04-22T09:19:31.962Z,61.22
2017-04-22T09:20:33.390Z,62.56
2017-04-22T09:21:34.816Z,61.42
2017-04-22T09:22:36.242Z,62.18
2017-04-22T09:23:37.682Z,61.61
2017-04-22T09:24:39.123Z,60.18
2017-04-22T09:25:40.550Z,62.18
2017-04-22T09:26:41.981Z,62.94
2017-04-22T09:27:43.408Z,60.66
2017-04-22T09:28:44.839Z,61.90
2017-04-22T09:29:46.305Z,61.70
2017-04-22T09:30:47.729Z,61.32
2017-04-22T09:31:49.163Z,61.80
2017-04-22T09:32:50.593Z,60.85
2017-04-22T09:33:52.069Z,60.46
2017-04-22T09:34:53.496Z,60.37
2017-04-22T09:35:54.933Z,61.51
2017-04-22T09:36:56.369Z,60.56
2017-04-22T09:37:57.803Z,60.66
2017-04-22T09:38:59.242Z,60.75
2017-04-22T09:40:00.673Z,59.77
2017-04-22T09:41:02.779Z,61.58
2017-04-22T09:42:04.218Z,61.10
2017-04-22T09:43:05.633Z,61.00
2017-04-22T09:44:07.064Z,60.63
2017-04-22T09:45:08.491Z,60.44
2017-04-22T09:46:09.922Z,61.29
2017-04-22T09:47:11.352Z,61.00
2017-04-22T09:48:12.779Z,62.24
2017-04-22T09:49:14.205Z,62.34
2017-04-22T09:50:15.647Z,62.43
2017-04-22T09:51:17.086Z,62.65
2017-04-22T09:52:18.506Z,63.23
2017-04-22T09:53:19.936Z,63.89
2017-04-22T09:54:21.378Z,62.94
2017-04-22T09:55:22.812Z,61.90
2017-04-22T09:56:24.243Z,60.94
2017-04-22T09:57:25.680Z,62.85
2017-04-22T09:58:27.116Z,62.18
2017-04-22T09:59:28.544Z,62.72
2017-04-22T10:00:29.974Z,63.01
2017-04-22T10:01:31.403Z,63.51
2017-04-22T10:02:32.830Z,62.75
2017-04-22T10:03:34.266Z,61.25
2017-04-22T10:04:35.695Z,60.21
2017-04-22T10:05:37.123Z,60.11
2017-04-22T10:06:38.553Z,58.87
2017-04-22T10:07:39.986Z,58.87
2017-04-22T10:08:41.414Z,60.21
2017-04-22T10:09:42.844Z,60.24
2017-04-22T10:10:44.277Z,59.38
2017-04-22T10:11:45.666Z,59.00
2017-04-22T10:12:47.099Z,59.00
2017-04-22T10:13:48.528Z,57.09
2017-04-22T10:14:49.954Z,58.69
2017-04-22T10:15:51.412Z,58.91
2017-04-22T10:16:52.823Z,58.11
2017-04-22T10:17:54.257Z,57.76
2017-04-22T10:18:55.682Z,58.62
2017-04-22T10:19:57.112Z,57.92
2017-04-22T10:20:58.499Z,57.54
2017-04-22T10:21:59.930Z,58.11
2017-04-22T10:23:01.361Z,57.16
2017-04-22T10:24:02.800Z,56.02
2017-04-22T10:25:04.228Z,58.43
2017-04-22T10:26:05.655Z,57.95
2017-04-22T10:27:07.096Z,56.33
2017-04-22T10:28:08.532Z,55.95
2017-04-22T10:29:09.964Z,57.28
2017-04-22T10:30:11.398Z,57.19
2017-04-22T10:31:12.825Z,55.76
2017-04-22T10:32:14.363Z,55.66
2017-04-22T10:33:15.793Z,58.33
2017-04-22T10:34:17.221Z,56.93
2017-04-22T10:35:18.653Z,56.62
2017-04-22T10:36:20.157Z,56.52
2017-04-22T10:37:21.592Z,55.57
2017-04-22T10:38:23.015Z,57.45
2017-04-22T10:39:24.464Z,58.24
2017-04-22T10:40:25.894Z,56.55
2017-04-22T10:41:27.328Z,55.69
2017-04-22T10:42:28.759Z,56.26
2017-04-22T10:43:30.192Z,54.64
2017-04-22T10:44:31.626Z,55.15
2017-04-22T10:45:33.056Z,53.02
2017-04-22T10:46:34.485Z,53.69
2017-04-22T10:47:35.921Z,53.88
2017-04-22T10:48:37.352Z,54.83
2017-04-22T10:49:38.787Z,53.76
2017-04-22T10:50:40.309Z,53.97
2017-04-22T10:51:41.805Z,55.57
2017-04-22T10:52:43.237Z,55.28
2017-04-22T10:53:44.666Z,57.00
2017-04-22T10:54:46.105Z,56.33
2017-04-22T10:55:47.543Z,56.65
2017-04-22T10:56:49.844Z,56.81
2017-04-22T10:57:51.276Z,57.48
2017-04-22T10:58:52.703Z,56.62
2017-04-22T10:59:54.131Z,55.09
2017-04-22T11:00:55.558Z,54.43
2017-04-22T11:01:56.995Z,52.52
2017-04-22T11:02:58.423Z,52.71
2017-04-22T11:03:59.852Z,53.47
2017-04-22T11:05:01.294Z,52.49
2017-04-22T11:06:02.717Z,52.59
2017-04-22T11:07:04.153Z,52.97
2017-04-22T11:08:05.582Z,53.73
2017-04-22T11:09:07.005Z,52.68
2017-04-22T11:10:09.325Z,52.61
2017-04-22T11:11:09.816Z,53.25
2017-04-22T11:12:11.259Z,53.00
2017-04-22T11:13:12.685Z,53.06
2017-04-22T11:14:14.128Z,52.87
2017-04-22T11:15:15.562Z,50.61
2017-04-22T11:16:16.989Z,49.02
2017-04-22T11:17:18.424Z,47.78
2017-04-22T11:18:19.857Z,48.73
2017-04-22T11:19:21.288Z,48.92
2017-04-22T11:20:22.722Z,47.78
2017-04-22T11:21:24.153Z,49.11
2017-04-22T11:22:25.587Z,48.25
2017-04-22T11:23:27.025Z,50.07
2017-04-22T11:24:28.452Z,49.76
2017-04-22T11:25:29.883Z,50.52
2017-04-22T11:26:31.318Z,51.09
2017-04-22T11:27:32.740Z,50.61
2017-04-22T11:28:34.177Z,49.95
2017-04-22T11:29:35.606Z,50.71
2017-04-22T11:30:37.041Z,49.73
2017-04-22T11:31:38.476Z,49.44
2017-04-22T11:32:40.469Z,50.99
2017-04-22T11:33:41.907Z,48.83
2017-04-22T11:34:43.329Z,48.18
2017-04-22T11:35:44.769Z,47.13
2017-04-22T11:36:46.208Z,48.37
2017-04-22T11:37:47.643Z,48.83
2017-04-22T11:38:49.083Z,47.87
2017-04-22T11:39:51.409Z,47.85
2017-04-22T11:40:52.857Z,48.99
2017-04-22T11:41:54.285Z,49.95
2017-04-22T11:42:55.721Z,49.47
2017-04-22T11:43:57.156Z,50.32
2017-04-22T11:44:58.584Z,50.30
2017-04-22T11:46:00.011Z,50.78
2017-04-22T11:47:01.437Z,50.78
2017-04-22T11:48:02.875Z,52.80
2017-04-22T11:49:04.304Z,51.37
2017-04-22T11:50:05.733Z,51.47
2017-04-22T11:51:07.163Z,51.59
2017-04-22T11:52:08.597Z,50.92
2017-04-22T11:53:10.038Z,51.47
2017-04-22T11:54:11.473Z,51.37
2017-04-22T11:55:12.900Z,52.90
2017-04-22T11:56:14.329Z,52.04
2017-04-22T11:57:15.763Z,50.99
2017-04-22T11:58:17.200Z,50.90
2017-04-22T11:59:18.625Z,50.99
2017-04-22T12:00:20.057Z,50.23
2017-04-22T12:01:21.495Z,50.99
2017-04-22T12:02:22.921Z,51.45
2017-04-22T12:03:24.361Z,50.32
2017-04-22T12:04:25.818Z,50.90
2017-04-22T12:05:27.223Z,51.18
2017-04-22T12:06:28.656Z,50.32
2017-04-22T12:07:30.098Z,49.37
2017-04-22T12:08:31.535Z,51.28
2017-04-22T12:09:32.974Z,49.49
2017-04-22T12:10:34.405Z,49.11
2017-04-22T12:11:35.838Z,49.49
2017-04-22T12:12:37.269Z,50.71
2017-04-22T12:13:38.704Z,50.90
2017-04-22T12:14:40.151Z,48.99
2017-04-22T12:15:41.586Z,49.56
2017-04-22T12:16:43.021Z,50.42
2017-04-22T12:17:44.460Z,50.80
2017-04-22T12:18:45.884Z,50.49
2017-04-22T12:19:47.333Z,50.40
2017-04-22T12:20:48.765Z,51.45
2017-04-22T12:21:50.194Z,51.45
2017-04-22T12:22:51.633Z,51.73
2017-04-22T12:23:53.067Z,52.97
2017-04-22T12:24:54.494Z,51.73
2017-04-22T12:25:55.937Z,50.59
2017-04-22T12:26:57.366Z,50.49
2017-04-22T12:27:58.808Z,51.09
2017-04-22T12:29:00.239Z,49.85
2017-04-22T12:30:01.664Z,49.47
2017-04-22T12:31:03.095Z,49.76
2017-04-22T12:32:04.522Z,50.78
2017-04-22T12:33:05.957Z,50.30
2017-04-22T12:34:07.386Z,51.06
2017-04-22T12:35:08.819Z,51.54
2017-04-22T12:36:10.248Z,52.49
2017-04-22T12:37:11.677Z,51.35
2017-04-22T12:38:13.129Z,50.97
2017-04-22T12:39:14.563Z,50.68
2017-04-22T12:40:15.988Z,52.01
2017-04-22T12:41:17.425Z,50.87
2017-04-22T12:42:18.858Z,51.16
2017-04-22T12:43:20.287Z,52.11
2017-04-22T12:44:21.722Z,52.01
2017-04-22T12:45:23.150Z,50.87
2017-04-22T12:46:24.579Z,51.54
2017-04-22T12:47:26.007Z,51.16
2017-04-22T12:48:27.453Z,51.82
2017-04-22T12:49:28.881Z,52.68
2017-04-22T12:50:30.334Z,51.06
2017-04-22T12:51:31.768Z,50.52
2017-04-22T12:52:33.201Z,50.78
2017-04-22T12:53:34.630Z,50.04
2017-04-22T12:54:36.063Z,50.52
2017-04-22T12:55:37.493Z,50.42
2017-04-22T12:56:38.921Z,49.56
2017-04-22T12:57:40.396Z,49.08
2017-04-22T12:58:41.828Z,50.61
2017-04-22T12:59:43.259Z,50.71
2017-04-22T13:00:44.696Z,48.78
2017-04-22T13:01:46.134Z,50.40
2017-04-22T13:02:47.566Z,51.06
2017-04-22T13:03:49.008Z,51.92
2017-04-22T13:04:50.439Z,51.25
2017-04-22T13:05:51.932Z,50.78
2017-04-22T13:06:53.361Z,52.20
2017-04-22T13:07:54.802Z,51.35
2017-04-22T13:08:56.237Z,51.54
2017-04-22T13:09:57.669Z,50.40
2017-04-22T13:10:59.096Z,50.59